Strawberry Point, California
Current Conditions -  °F | °C
As of 4:35 PM on Monday 24 Nov 2014 (Local Time) from KDVO Reporting Station
Clear Clear  
Wind Chill: 61°   Ceiling: Unl
Heat Index: 61°   Visibility: NA
Dew Point: 45°   Wind: 3mph
Humidity: 55%   Direction: 140°SE
Pressure: 30.35"   Gusts: NA
Location:  37.8835°N, 122.554°W
Report Text: KDVO 250035Z AUTO 14003KT CLR 16/07 A3035 RMK AO2
Loading
Personal Weather Stations






























Interactive Weather Map New forecast layout! Learn more

10-Day Weather Forecast

Advertisements
Track Severe Weather on mobile